createdAt,value
2023-04-23T00:00:00.418Z,4.43
2023-04-23T00:01:35.611Z,4.25
2023-04-23T00:03:10.335Z,4.00
2023-04-23T00:04:51.690Z,4.30
2023-04-23T00:06:26.927Z,4.20
2023-04-23T00:08:00.857Z,4.32
2023-04-23T00:09:33.408Z,3.78
2023-04-23T00:11:05.513Z,4.35
2023-04-23T00:12:37.621Z,3.90
2023-04-23T00:14:09.710Z,4.18
2023-04-23T00:15:41.912Z,3.90
2023-04-23T00:17:13.799Z,4.32
2023-04-23T00:18:45.672Z,3.90
2023-04-23T00:20:17.894Z,4.05
2023-04-23T00:21:49.742Z,4.30
2023-04-23T00:23:21.627Z,3.65
2023-04-23T00:24:53.813Z,3.80
2023-04-23T00:26:26.027Z,3.50
2023-04-23T00:27:57.843Z,4.00
2023-04-23T00:29:29.886Z,3.35
2023-04-23T00:31:01.814Z,3.65
2023-04-23T00:32:34.039Z,3.22
2023-04-23T00:34:06.046Z,3.53
2023-04-23T00:35:37.879Z,3.50
2023-04-23T00:37:09.793Z,3.40
2023-04-23T00:38:41.761Z,3.65
2023-04-23T00:40:15.615Z,3.80
2023-04-23T00:41:48.488Z,3.70
2023-04-23T00:43:20.891Z,3.67
2023-04-23T00:44:52.809Z,3.40
2023-04-23T00:46:26.647Z,3.80
2023-04-23T00:47:59.068Z,3.38
2023-04-23T00:49:31.733Z,3.70
2023-04-23T00:51:05.201Z,3.60
2023-04-23T00:52:39.237Z,4.22
2023-04-23T00:54:11.429Z,3.40
2023-04-23T00:55:43.626Z,3.53
2023-04-23T00:57:15.738Z,3.40
2023-04-23T00:58:47.746Z,3.70
2023-04-23T01:00:20.567Z,3.75
2023-04-23T01:01:54.140Z,3.78
2023-04-23T01:03:27.212Z,3.47
2023-04-23T01:05:01.808Z,3.75
2023-04-23T01:06:33.808Z,3.50
2023-04-23T01:08:06.520Z,3.60
2023-04-23T01:09:39.065Z,3.58
2023-04-23T01:11:14.920Z,3.35
2023-04-23T01:12:48.052Z,3.45
2023-04-23T01:14:19.891Z,3.55
2023-04-23T01:15:51.765Z,3.15
2023-04-23T01:17:23.671Z,3.28
2023-04-23T01:18:56.967Z,2.97
2023-04-23T01:20:28.830Z,2.90
2023-04-23T01:22:02.566Z,2.75
2023-04-23T01:23:34.538Z,3.08
2023-04-23T01:25:08.338Z,2.95
2023-04-23T01:26:40.921Z,3.17
2023-04-23T01:28:13.577Z,3.20
2023-04-23T01:29:47.360Z,2.85
2023-04-23T01:31:19.329Z,3.03
2023-04-23T01:32:51.855Z,3.35
2023-04-23T01:34:24.289Z,2.97
2023-04-23T01:35:57.885Z,2.60
2023-04-23T01:37:30.685Z,2.67
2023-04-23T01:39:02.534Z,2.58
2023-04-23T01:40:34.546Z,2.75
2023-04-23T01:42:07.464Z,2.83
2023-04-23T01:43:41.962Z,2.78
2023-04-23T01:45:14.097Z,2.65
2023-04-23T01:46:46.090Z,2.50
2023-04-23T01:48:19.667Z,2.50
2023-04-23T01:49:51.580Z,2.50
2023-04-23T01:51:25.448Z,2.60
2023-04-23T01:52:57.351Z,2.42
2023-04-23T01:54:29.286Z,2.50
2023-04-23T01:56:02.515Z,2.60
2023-04-23T01:57:34.883Z,2.75
2023-04-23T01:59:07.544Z,2.95
2023-04-23T02:00:39.366Z,2.63
2023-04-23T02:02:14.061Z,2.63
2023-04-23T02:03:46.843Z,3.08
2023-04-23T02:05:19.872Z,2.50
2023-04-23T02:06:51.975Z,2.60
2023-04-23T02:08:24.136Z,3.30
2023-04-23T02:09:56.738Z,2.53
2023-04-23T02:11:28.622Z,2.63
2023-04-23T02:13:01.804Z,2.53
2023-04-23T02:14:33.721Z,2.78
2023-04-23T02:16:06.025Z,2.78
2023-04-23T02:17:40.174Z,2.75
2023-04-23T02:19:14.082Z,2.85
2023-04-23T02:20:47.719Z,2.80
2023-04-23T02:22:19.617Z,2.78
2023-04-23T02:23:51.669Z,2.72
2023-04-23T02:25:23.750Z,2.58
2023-04-23T02:26:55.788Z,3.42
2023-04-23T02:28:27.606Z,3.20
2023-04-23T02:29:59.599Z,3.97
2023-04-23T02:31:31.590Z,3.70
2023-04-23T02:33:04.119Z,3.65
2023-04-23T02:34:35.957Z,3.00
2023-04-23T02:36:08.561Z,3.05
2023-04-23T02:37:40.636Z,2.60
2023-04-23T02:39:12.495Z,2.90
2023-04-23T02:40:44.376Z,3.30
2023-04-23T02:42:16.281Z,3.00
2023-04-23T02:43:48.069Z,3.35
2023-04-23T02:45:19.959Z,3.00
2023-04-23T02:46:52.939Z,3.50
2023-04-23T02:48:26.309Z,3.80
2023-04-23T02:49:58.436Z,3.35
2023-04-23T02:51:31.349Z,2.70
2023-04-23T02:53:03.356Z,2.72
2023-04-23T02:54:37.278Z,2.80
2023-04-23T02:56:09.549Z,2.90
2023-04-23T02:57:41.460Z,2.60
2023-04-23T02:59:13.452Z,2.88
2023-04-23T03:00:45.453Z,2.53
2023-04-23T03:02:17.392Z,2.40
2023-04-23T03:03:49.563Z,2.65
2023-04-23T03:05:21.767Z,2.95
2023-04-23T03:06:53.650Z,2.70
2023-04-23T03:08:25.648Z,2.65
2023-04-23T03:09:57.601Z,3.00
2023-04-23T03:11:29.877Z,2.50
2023-04-23T03:13:02.215Z,2.63
2023-04-23T03:14:34.261Z,2.65
2023-04-23T03:16:06.719Z,2.83
2023-04-23T03:17:39.197Z,3.15
2023-04-23T03:19:11.805Z,3.30
2023-04-23T03:20:44.639Z,2.67
2023-04-23T03:22:16.509Z,3.58
2023-04-23T03:23:48.342Z,3.65
2023-04-23T03:25:22.606Z,3.50
2023-04-23T03:26:54.461Z,3.53
2023-04-23T03:28:26.630Z,3.47
2023-04-23T03:29:58.441Z,3.83
2023-04-23T03:31:30.430Z,4.10
2023-04-23T03:33:03.089Z,3.88
2023-04-23T03:34:35.106Z,3.65
2023-04-23T03:36:07.418Z,3.80
2023-04-23T03:37:39.247Z,3.60
2023-04-23T03:39:11.465Z,3.78
2023-04-23T03:40:55.464Z,3.28
2023-04-23T03:42:27.338Z,3.85
2023-04-23T03:43:59.584Z,4.00
2023-04-23T03:45:45.815Z,4.07
2023-04-23T03:47:17.694Z,4.45
2023-04-23T03:48:49.960Z,4.20
2023-04-23T03:50:29.811Z,4.28
2023-04-23T03:52:14.023Z,4.22
2023-04-23T03:53:46.758Z,3.95
2023-04-23T03:55:37.205Z,3.97
2023-04-23T03:57:09.726Z,3.70
2023-04-23T03:58:47.606Z,3.30
2023-04-23T04:00:19.479Z,3.72
2023-04-23T04:01:51.472Z,3.50
2023-04-23T04:03:23.776Z,3.30
2023-04-23T04:04:56.739Z,3.20
2023-04-23T04:06:29.605Z,3.70
2023-04-23T04:08:02.016Z,3.67
2023-04-23T04:09:35.175Z,3.92
2023-04-23T04:11:07.055Z,3.70
2023-04-23T04:12:40.018Z,3.50
2023-04-23T04:14:14.538Z,3.72
2023-04-23T04:15:46.447Z,3.85
2023-04-23T04:17:18.397Z,3.45
2023-04-23T04:18:50.211Z,3.78
2023-04-23T04:20:24.322Z,4.07
2023-04-23T04:21:56.362Z,4.00
2023-04-23T04:23:28.870Z,3.80
2023-04-23T04:25:00.745Z,3.70
2023-04-23T04:26:34.559Z,3.80
2023-04-23T04:28:08.456Z,4.10
2023-04-23T04:29:41.099Z,3.85
2023-04-23T04:31:14.660Z,3.58
2023-04-23T04:32:47.489Z,3.80
2023-04-23T04:34:19.340Z,3.95
2023-04-23T04:35:51.240Z,3.92
2023-04-23T04:37:23.421Z,4.10
2023-04-23T04:38:58.417Z,3.95
2023-04-23T04:40:30.636Z,3.85
2023-04-23T04:42:05.121Z,4.13
2023-04-23T04:43:37.934Z,3.75
2023-04-23T04:45:10.719Z,3.75
2023-04-23T04:46:43.202Z,3.47
2023-04-23T04:48:15.053Z,3.97
2023-04-23T04:49:47.016Z,3.95
2023-04-23T04:51:18.821Z,3.35
2023-04-23T04:52:50.685Z,3.65
2023-04-23T04:54:22.482Z,3.63
2023-04-23T04:55:54.332Z,4.15
2023-04-23T04:57:26.143Z,3.95
2023-04-23T04:58:57.998Z,4.30
2023-04-23T05:00:30.329Z,3.88
2023-04-23T05:02:02.211Z,3.38
2023-04-23T05:03:34.236Z,4.00
2023-04-23T05:05:06.847Z,4.13
2023-04-23T05:06:38.648Z,4.18
2023-04-23T05:08:10.641Z,4.43
2023-04-23T05:09:44.899Z,4.07
2023-04-23T05:11:19.113Z,3.80
2023-04-23T05:12:52.105Z,3.95
2023-04-23T05:14:26.200Z,3.83
2023-04-23T05:15:58.051Z,3.95
2023-04-23T05:17:29.882Z,3.53
2023-04-23T05:19:01.704Z,3.58
2023-04-23T05:20:33.985Z,4.00
2023-04-23T05:22:06.114Z,3.30
2023-04-23T05:23:37.930Z,3.85
2023-04-23T05:25:12.269Z,3.63
2023-04-23T05:26:44.111Z,3.72
2023-04-23T05:28:16.158Z,3.83
2023-04-23T05:29:48.007Z,3.95
2023-04-23T05:31:20.279Z,3.53
2023-04-23T05:32:52.234Z,3.60
2023-04-23T05:34:24.378Z,3.00
2023-04-23T05:35:57.479Z,3.30
2023-04-23T05:37:29.778Z,2.85
2023-04-23T05:39:01.578Z,2.90
2023-04-23T05:40:33.572Z,3.10
2023-04-23T05:42:06.026Z,3.33
2023-04-23T05:43:37.833Z,2.90
2023-04-23T05:45:10.212Z,3.10
2023-04-23T05:46:42.099Z,2.60
2023-04-23T05:48:14.059Z,2.80
2023-04-23T05:49:45.877Z,2.90
2023-04-23T05:51:18.009Z,2.42
2023-04-23T05:52:49.802Z,2.45
2023-04-23T05:54:21.851Z,2.53
2023-04-23T05:55:53.692Z,2.40
2023-04-23T05:57:25.630Z,2.80
2023-04-23T05:58:57.426Z,2.42
2023-04-23T06:00:29.348Z,2.40
2023-04-23T06:02:01.326Z,2.50
2023-04-23T06:03:33.400Z,2.30
2023-04-23T06:05:06.450Z,2.50
2023-04-23T06:06:38.376Z,2.28
2023-04-23T06:08:10.239Z,2.20
2023-04-23T06:09:42.209Z,1.67
2023-04-23T06:11:14.046Z,2.22
2023-04-23T06:12:45.855Z,1.80
2023-04-23T06:14:17.669Z,2.38
2023-04-23T06:15:49.540Z,2.20
2023-04-23T06:17:21.389Z,2.55
2023-04-23T06:18:54.292Z,2.08
2023-04-23T06:20:26.349Z,2.05
2023-04-23T06:21:58.179Z,2.25
2023-04-23T06:23:34.391Z,1.73
2023-04-23T06:25:06.631Z,1.98
2023-04-23T06:26:38.731Z,1.60
2023-04-23T06:28:17.356Z,1.50
2023-04-23T06:30:08.654Z,1.48
2023-04-23T06:31:42.109Z,1.50
2023-04-23T06:33:14.455Z,1.50
2023-04-23T06:34:57.512Z,1.45
2023-04-23T06:36:32.628Z,1.40
2023-04-23T06:38:04.448Z,1.42
2023-04-23T06:39:36.270Z,1.27
2023-04-23T06:41:08.134Z,1.10
2023-04-23T06:42:39.989Z,1.30
2023-04-23T06:44:34.947Z,1.23
2023-04-23T06:46:08.160Z,1.15
2023-04-23T06:47:39.998Z,1.20
2023-04-23T06:49:12.434Z,1.30
2023-04-23T06:50:45.026Z,1.45
2023-04-23T06:52:16.876Z,1.45
2023-04-23T06:53:48.673Z,1.10
2023-04-23T06:55:22.237Z,1.23
2023-04-23T06:56:54.169Z,1.20
2023-04-23T06:58:31.378Z,1.35
2023-04-23T07:00:03.611Z,1.40
2023-04-23T07:01:41.217Z,1.25
2023-04-23T07:03:13.239Z,1.05
2023-04-23T07:04:46.041Z,1.00
2023-04-23T07:06:18.348Z,1.00
2023-04-23T07:07:50.250Z,1.15
2023-04-23T07:09:23.340Z,1.10
2023-04-23T07:10:55.180Z,1.35
2023-04-23T07:12:27.002Z,1.10
2023-04-23T07:13:58.888Z,1.30
2023-04-23T07:15:31.051Z,1.17
2023-04-23T07:17:03.197Z,1.20
2023-04-23T07:18:35.022Z,1.63
2023-04-23T07:20:08.844Z,1.30
2023-04-23T07:21:40.706Z,1.45
2023-04-23T07:23:12.523Z,1.10
2023-04-23T07:24:44.450Z,1.23
2023-04-23T07:26:16.465Z,1.17
2023-04-23T07:27:48.298Z,1.48
2023-04-23T07:29:20.696Z,1.40
2023-04-23T07:30:52.477Z,1.20
2023-04-23T07:32:28.183Z,1.30
2023-04-23T07:34:00.201Z,1.45
2023-04-23T07:35:31.982Z,1.05
2023-04-23T07:37:04.514Z,1.13
2023-04-23T07:38:36.312Z,1.35
2023-04-23T07:40:09.343Z,1.55
2023-04-23T07:41:41.236Z,1.45
2023-04-23T07:43:14.250Z,1.38
2023-04-23T07:44:46.071Z,1.10
2023-04-23T07:46:17.970Z,0.98
2023-04-23T07:47:50.433Z,1.27
2023-04-23T07:49:22.336Z,1.30
2023-04-23T07:50:54.384Z,1.38
2023-04-23T07:52:26.172Z,1.20
2023-04-23T07:53:58.590Z,1.20
2023-04-23T07:55:30.397Z,1.30
2023-04-23T07:57:03.194Z,1.20
2023-04-23T07:58:35.675Z,1.20
2023-04-23T08:00:11.570Z,1.00
2023-04-23T08:01:46.488Z,1.25
2023-04-23T08:03:18.496Z,0.82
2023-04-23T08:04:50.489Z,0.85
2023-04-23T08:06:23.694Z,0.80
2023-04-23T08:07:55.494Z,0.70
2023-04-23T08:09:27.340Z,0.60
2023-04-23T08:10:59.288Z,0.50
2023-04-23T08:12:31.366Z,0.80
2023-04-23T08:14:03.188Z,0.60
2023-04-23T08:15:35.202Z,0.80
2023-04-23T08:17:06.989Z,0.57
2023-04-23T08:18:39.054Z,0.70
2023-04-23T08:20:11.718Z,0.60
2023-04-23T08:21:43.586Z,0.65
2023-04-23T08:23:15.374Z,0.80
2023-04-23T08:24:47.242Z,0.90
2023-04-23T08:26:19.245Z,0.60
2023-04-23T08:27:51.242Z,0.80
2023-04-23T08:29:23.075Z,0.60
2023-04-23T08:30:55.006Z,0.60
2023-04-23T08:32:26.902Z,0.50
2023-04-23T08:33:59.496Z,0.70
2023-04-23T08:35:31.327Z,0.70
2023-04-23T08:37:03.305Z,0.80
2023-04-23T08:38:35.473Z,0.70
2023-04-23T08:40:07.994Z,0.80
2023-04-23T08:41:43.117Z,0.70
2023-04-23T08:43:21.089Z,0.60
2023-04-23T08:44:54.298Z,0.55
2023-04-23T08:46:31.387Z,0.70
2023-04-23T08:48:04.997Z,0.70
2023-04-23T08:49:41.868Z,0.40
2023-04-23T08:51:18.594Z,0.65
2023-04-23T08:52:53.636Z,0.70
2023-04-23T08:54:29.165Z,0.60
2023-04-23T08:56:01.225Z,0.60
2023-04-23T08:57:33.409Z,0.70
2023-04-23T08:59:06.859Z,0.60
2023-04-23T09:00:38.878Z,0.70
2023-04-23T09:02:11.165Z,0.75
2023-04-23T09:03:43.198Z,0.70
2023-04-23T09:05:15.741Z,0.65
2023-04-23T09:06:47.564Z,0.70
2023-04-23T09:08:21.476Z,0.65
2023-04-23T09:09:53.420Z,0.60
2023-04-23T09:11:28.484Z,0.60
2023-04-23T09:13:00.828Z,0.73
2023-04-23T09:14:33.132Z,0.90
2023-04-23T09:16:05.859Z,0.90
2023-04-23T09:17:43.360Z,1.20
2023-04-23T09:19:15.291Z,0.80
2023-04-23T09:20:47.637Z,0.80
2023-04-23T09:22:58.301Z,0.50
2023-04-23T09:24:31.054Z,0.50
2023-04-23T09:26:06.754Z,0.57
2023-04-23T09:27:39.475Z,0.57
2023-04-23T09:29:17.732Z,0.40
2023-04-23T09:30:49.582Z,0.40
2023-04-23T09:32:32.485Z,0.45
2023-04-23T09:34:04.317Z,0.40
2023-04-23T09:35:40.224Z,0.45
2023-04-23T09:37:14.949Z,0.40
2023-04-23T09:38:46.843Z,0.45
2023-04-23T09:40:25.031Z,0.30
2023-04-23T09:42:04.688Z,0.40
2023-04-23T09:43:36.480Z,0.40
2023-04-23T09:45:11.936Z,0.40
2023-04-23T09:46:44.757Z,0.43
2023-04-23T09:48:16.624Z,0.30
2023-04-23T09:49:49.439Z,0.50
2023-04-23T09:51:21.371Z,0.30
2023-04-23T09:52:56.802Z,0.38
2023-04-23T09:54:28.622Z,0.30
2023-04-23T09:56:00.524Z,0.30
2023-04-23T09:57:37.549Z,0.30
2023-04-23T09:59:36.123Z,0.30
2023-04-23T10:01:18.742Z,0.40
2023-04-23T10:02:52.319Z,0.30
2023-04-23T10:04:27.366Z,0.38
2023-04-23T10:06:01.945Z,0.30
2023-04-23T10:07:35.200Z,0.55
2023-04-23T10:09:07.075Z,0.40
2023-04-23T10:10:54.512Z,0.30
2023-04-23T10:12:46.496Z,0.40
2023-04-23T10:14:25.289Z,0.30
2023-04-23T10:16:04.693Z,0.40
2023-04-23T10:17:42.431Z,0.70
2023-04-23T10:19:15.367Z,0.30
2023-04-23T10:20:48.736Z,0.30
2023-04-23T10:22:22.021Z,0.40
2023-04-23T10:23:55.104Z,0.30
2023-04-23T10:25:28.330Z,0.40
2023-04-23T10:27:02.922Z,0.43
2023-04-23T10:28:36.329Z,0.30
2023-04-23T10:30:11.170Z,0.32
2023-04-23T10:31:43.372Z,0.35
2023-04-23T10:33:28.967Z,0.30
2023-04-23T10:35:02.678Z,0.30
2023-04-23T10:36:34.613Z,0.40
2023-04-23T10:38:06.978Z,0.38
2023-04-23T10:39:39.150Z,0.35
2023-04-23T10:41:11.921Z,0.22
2023-04-23T10:42:45.241Z,0.20
2023-04-23T10:44:17.632Z,0.35
2023-04-23T10:45:56.065Z,0.40
2023-04-23T10:47:27.945Z,0.40
2023-04-23T10:49:14.918Z,0.47
2023-04-23T10:51:05.770Z,0.30
2023-04-23T10:52:39.605Z,0.30
2023-04-23T10:54:14.835Z,0.30
2023-04-23T10:55:47.382Z,0.30
2023-04-23T10:57:19.441Z,0.20
2023-04-23T10:58:52.024Z,0.30
2023-04-23T11:00:24.152Z,0.30
2023-04-23T11:01:59.806Z,0.30
2023-04-23T11:03:33.204Z,0.40
2023-04-23T11:05:09.881Z,0.30
2023-04-23T11:06:47.509Z,0.30
2023-04-23T11:08:20.126Z,0.32
2023-04-23T11:09:54.072Z,0.30
2023-04-23T11:11:41.782Z,0.20
2023-04-23T11:13:27.120Z,0.30
2023-04-23T11:15:09.720Z,0.30
2023-04-23T11:16:41.580Z,0.40
2023-04-23T11:18:13.500Z,0.40
2023-04-23T11:20:04.334Z,0.30
2023-04-23T11:21:54.830Z,0.32
2023-04-23T11:23:33.174Z,0.30
2023-04-23T11:25:09.396Z,0.52
2023-04-23T11:26:42.995Z,0.30
2023-04-23T11:28:15.044Z,0.40
2023-04-23T11:29:48.035Z,0.40
2023-04-23T11:31:20.314Z,0.30
2023-04-23T11:32:54.717Z,0.30
2023-04-23T11:34:26.771Z,0.40
2023-04-23T11:35:58.729Z,0.20
2023-04-23T11:37:30.554Z,0.40
2023-04-23T11:39:03.310Z,0.32
2023-04-23T11:40:35.239Z,0.30
2023-04-23T11:42:11.311Z,0.20
2023-04-23T11:43:43.655Z,0.30
2023-04-23T11:45:20.519Z,0.25
2023-04-23T11:46:52.440Z,0.38
2023-04-23T11:48:24.257Z,0.30
2023-04-23T11:49:56.071Z,0.30
2023-04-23T11:51:28.145Z,0.40
2023-04-23T11:53:09.582Z,0.20
2023-04-23T11:54:42.675Z,0.30
2023-04-23T11:56:17.437Z,0.38
2023-04-23T11:57:50.982Z,0.30
2023-04-23T11:59:23.605Z,0.30
2023-04-23T12:00:59.948Z,0.32
2023-04-23T12:02:31.869Z,0.30
2023-04-23T12:04:11.104Z,0.30
2023-04-23T12:05:45.113Z,0.20
2023-04-23T12:07:25.831Z,0.30
2023-04-23T12:08:58.648Z,0.32
2023-04-23T12:10:30.477Z,0.47
2023-04-23T12:12:02.747Z,0.30
2023-04-23T12:13:34.634Z,0.30
2023-04-23T12:15:07.633Z,0.30
2023-04-23T12:16:41.530Z,0.40
2023-04-23T12:18:13.360Z,0.30
2023-04-23T12:19:45.461Z,0.30
2023-04-23T12:21:18.974Z,0.32
2023-04-23T12:22:50.809Z,0.30
2023-04-23T12:24:24.158Z,0.28
2023-04-23T12:25:56.276Z,0.38
2023-04-23T12:27:28.584Z,0.30
2023-04-23T12:29:00.474Z,0.45
2023-04-23T12:30:35.630Z,0.35
2023-04-23T12:32:11.515Z,0.20
2023-04-23T12:33:44.040Z,0.30
2023-04-23T12:35:15.911Z,0.50
2023-04-23T12:36:50.770Z,0.40
2023-04-23T12:38:27.714Z,0.40
2023-04-23T12:39:59.832Z,0.35
2023-04-23T12:41:33.439Z,0.57
2023-04-23T12:43:05.647Z,0.50
2023-04-23T12:44:38.809Z,0.40
2023-04-23T12:46:10.612Z,0.28
2023-04-23T12:47:42.471Z,0.40
2023-04-23T12:49:14.304Z,0.30
2023-04-23T12:50:46.950Z,0.20
2023-04-23T12:52:18.967Z,0.20
2023-04-23T12:53:51.437Z,0.43
2023-04-23T12:55:23.222Z,0.25
2023-04-23T12:56:55.880Z,0.20
2023-04-23T12:58:28.178Z,0.30
2023-04-23T13:00:00.031Z,0.20
2023-04-23T13:01:33.337Z,0.20
2023-04-23T13:03:05.288Z,0.20
2023-04-23T13:04:37.157Z,0.30
2023-04-23T13:06:08.945Z,0.25
2023-04-23T13:07:40.937Z,0.30
2023-04-23T13:09:13.016Z,0.40
2023-04-23T13:10:45.168Z,0.30
2023-04-23T13:12:16.992Z,0.30
2023-04-23T13:13:48.786Z,0.30
2023-04-23T13:15:20.701Z,0.30
2023-04-23T13:16:52.926Z,0.30
2023-04-23T13:18:25.103Z,0.22
2023-04-23T13:19:57.403Z,0.40
2023-04-23T13:21:29.209Z,0.30
2023-04-23T13:23:03.156Z,0.43
2023-04-23T13:24:35.179Z,0.40
2023-04-23T13:26:08.507Z,0.50
2023-04-23T13:27:41.040Z,0.20
2023-04-23T13:29:12.921Z,0.40
2023-04-23T13:30:44.726Z,0.30
2023-04-23T13:32:16.710Z,0.30
2023-04-23T13:33:48.494Z,0.30
2023-04-23T13:35:20.309Z,0.30
2023-04-23T13:36:52.126Z,0.35
2023-04-23T13:38:24.226Z,0.30
2023-04-23T13:39:56.171Z,0.35
2023-04-23T13:41:27.973Z,0.30
2023-04-23T13:42:59.804Z,0.43
2023-04-23T13:44:31.927Z,0.50
2023-04-23T13:46:04.066Z,0.30
2023-04-23T13:47:35.978Z,0.30
2023-04-23T13:49:07.893Z,0.28
2023-04-23T13:50:39.967Z,0.40
2023-04-23T13:52:11.788Z,0.30
2023-04-23T13:53:43.615Z,0.30
2023-04-23T13:55:15.513Z,0.30
2023-04-23T13:56:47.456Z,0.32
2023-04-23T13:58:19.444Z,0.30
2023-04-23T13:59:51.260Z,0.30
2023-04-23T14:01:23.166Z,0.50
2023-04-23T14:02:55.544Z,0.30
2023-04-23T14:04:27.480Z,0.35
2023-04-23T14:05:59.495Z,0.30
2023-04-23T14:07:31.342Z,0.40
2023-04-23T14:09:03.154Z,0.30
2023-04-23T14:10:35.600Z,0.30
2023-04-23T14:12:07.450Z,0.30
2023-04-23T14:13:39.374Z,0.30
2023-04-23T14:15:11.486Z,0.40
2023-04-23T14:16:43.292Z,0.22
2023-04-23T14:18:15.078Z,0.30
2023-04-23T14:19:47.502Z,0.30
2023-04-23T14:21:19.747Z,0.30
2023-04-23T14:23:02.935Z,0.30
2023-04-23T14:24:39.780Z,0.30
2023-04-23T14:26:22.644Z,0.40
2023-04-23T14:27:56.545Z,0.40
2023-04-23T14:29:50.690Z,0.43
2023-04-23T14:31:22.548Z,0.40
2023-04-23T14:32:56.667Z,0.30
2023-04-23T14:34:28.600Z,0.40
2023-04-23T14:36:00.424Z,0.40
2023-04-23T14:37:32.196Z,0.40
2023-04-23T14:39:05.637Z,0.40
2023-04-23T14:40:37.450Z,0.47
2023-04-23T14:42:09.687Z,0.40
2023-04-23T14:43:41.490Z,0.47
2023-04-23T14:45:14.336Z,0.40
2023-04-23T14:46:46.223Z,0.30
2023-04-23T14:48:18.057Z,0.50
2023-04-23T14:49:50.996Z,0.40
2023-04-23T14:51:23.128Z,0.30
2023-04-23T14:52:55.066Z,0.30
2023-04-23T14:54:26.902Z,0.38
2023-04-23T14:55:58.709Z,0.30
2023-04-23T14:57:31.204Z,0.40
2023-04-23T14:59:03.905Z,0.40
2023-04-23T15:00:36.015Z,0.32
2023-04-23T15:02:08.510Z,0.40
2023-04-23T15:03:40.814Z,0.50
2023-04-23T15:05:13.631Z,0.30
2023-04-23T15:06:45.445Z,0.40
2023-04-23T15:08:17.253Z,0.40
2023-04-23T15:09:49.069Z,0.50
2023-04-23T15:11:20.968Z,0.50
2023-04-23T15:13:02.268Z,0.30
2023-04-23T15:14:37.761Z,0.40
2023-04-23T15:16:25.717Z,0.30
2023-04-23T15:18:04.328Z,0.40
2023-04-23T15:19:36.247Z,0.50
2023-04-23T15:21:08.055Z,0.45
2023-04-23T15:22:39.887Z,0.40
2023-04-23T15:24:12.305Z,0.40
2023-04-23T15:25:44.133Z,0.40
2023-04-23T15:27:16.043Z,0.40
2023-04-23T15:28:48.466Z,0.35
2023-04-23T15:30:21.913Z,0.50
2023-04-23T15:31:58.484Z,0.40
2023-04-23T15:33:30.765Z,0.30
2023-04-23T15:35:02.734Z,0.30
2023-04-23T15:36:35.885Z,0.47
2023-04-23T15:38:07.692Z,0.40
2023-04-23T15:39:39.695Z,0.30
2023-04-23T15:41:12.690Z,0.38
2023-04-23T15:42:48.202Z,0.30
2023-04-23T15:44:20.029Z,0.20
2023-04-23T15:45:53.901Z,0.47
2023-04-23T15:47:25.930Z,0.32
2023-04-23T15:48:57.999Z,0.40
2023-04-23T15:50:29.848Z,0.30
2023-04-23T15:52:01.686Z,0.30
2023-04-23T15:53:33.500Z,0.47
2023-04-23T15:55:06.420Z,0.40
2023-04-23T15:56:38.234Z,0.30
2023-04-23T15:58:10.031Z,0.40
2023-04-23T15:59:42.150Z,0.30
2023-04-23T16:01:14.358Z,0.40
2023-04-23T16:02:46.345Z,0.38
2023-04-23T16:04:18.449Z,0.30
2023-04-23T16:05:51.234Z,0.30
2023-04-23T16:07:23.068Z,0.30
2023-04-23T16:08:54.868Z,0.30
2023-04-23T16:10:27.876Z,0.45
2023-04-23T16:11:59.877Z,0.43
2023-04-23T16:13:31.725Z,0.38
2023-04-23T16:15:04.641Z,0.38
2023-04-23T16:16:38.433Z,0.30
2023-04-23T16:18:10.357Z,0.30
2023-04-23T16:19:42.552Z,0.30
2023-04-23T16:21:14.625Z,0.47
2023-04-23T16:22:46.527Z,0.60
2023-04-23T16:24:19.282Z,0.50
2023-04-23T16:25:51.156Z,0.43
2023-04-23T16:27:23.648Z,0.40
2023-04-23T16:29:05.602Z,0.50
2023-04-23T16:30:43.466Z,0.65
2023-04-23T16:32:15.399Z,0.70
2023-04-23T16:33:47.201Z,0.60
2023-04-23T16:35:19.032Z,0.85
2023-04-23T16:36:50.832Z,0.60
2023-04-23T16:38:23.350Z,0.63
2023-04-23T16:39:55.145Z,0.68
2023-04-23T16:41:27.494Z,0.90
2023-04-23T16:42:59.638Z,0.82
2023-04-23T16:44:31.445Z,0.70
2023-04-23T16:46:03.373Z,0.70
2023-04-23T16:47:35.232Z,0.60
2023-04-23T16:49:07.141Z,0.50
2023-04-23T16:50:39.164Z,0.50
2023-04-23T16:52:11.306Z,0.65
2023-04-23T16:53:43.273Z,0.73
2023-04-23T16:55:15.291Z,0.70
2023-04-23T16:56:47.106Z,0.57
2023-04-23T16:58:19.046Z,0.45
2023-04-23T16:59:52.625Z,0.50
2023-04-23T17:01:24.710Z,0.57
2023-04-23T17:02:56.873Z,0.70
2023-04-23T17:04:28.898Z,0.75
2023-04-23T17:06:12.548Z,0.70
2023-04-23T17:07:44.507Z,0.60
2023-04-23T17:09:16.784Z,0.60
2023-04-23T17:10:48.602Z,0.70
2023-04-23T17:12:20.396Z,0.60
2023-04-23T17:13:52.294Z,0.63
2023-04-23T17:15:24.083Z,0.50
2023-04-23T17:16:56.426Z,0.52
2023-04-23T17:18:28.618Z,0.75
2023-04-23T17:20:00.495Z,0.50
2023-04-23T17:21:32.652Z,0.60
2023-04-23T17:23:04.478Z,0.70
2023-04-23T17:24:37.749Z,0.50
2023-04-23T17:26:10.954Z,0.68
2023-04-23T17:27:42.816Z,0.65
2023-04-23T17:29:14.617Z,0.90
2023-04-23T17:30:50.399Z,0.90
2023-04-23T17:32:22.611Z,0.63
2023-04-23T17:33:56.357Z,1.20
2023-04-23T17:35:28.180Z,1.00
2023-04-23T17:37:00.008Z,1.00
2023-04-23T17:38:31.851Z,0.90
2023-04-23T17:40:07.134Z,1.05
2023-04-23T17:41:39.123Z,1.00
2023-04-23T17:43:10.967Z,0.85
2023-04-23T17:44:43.942Z,1.13
2023-04-23T17:46:16.366Z,1.20
2023-04-23T17:47:48.263Z,1.20
2023-04-23T17:49:20.163Z,1.13
2023-04-23T17:50:52.048Z,1.70
2023-04-23T17:52:23.913Z,1.30
2023-04-23T17:53:55.756Z,1.30
2023-04-23T17:55:27.910Z,1.48
2023-04-23T17:56:59.709Z,1.55
2023-04-23T17:58:31.555Z,1.55
2023-04-23T18:00:09.842Z,1.60
2023-04-23T18:01:44.865Z,1.92
2023-04-23T18:03:18.714Z,2.05
2023-04-23T18:04:50.702Z,1.70
2023-04-23T18:06:23.094Z,1.77
2023-04-23T18:07:55.195Z,1.92
2023-04-23T18:09:27.206Z,2.00
2023-04-23T18:11:00.606Z,2.40
2023-04-23T18:12:32.784Z,2.88
2023-04-23T18:14:04.651Z,2.72
2023-04-23T18:15:36.885Z,3.13
2023-04-23T18:17:08.694Z,2.60
2023-04-23T18:18:40.567Z,3.00
2023-04-23T18:20:13.590Z,2.55
2023-04-23T18:21:46.118Z,2.78
2023-04-23T18:23:20.721Z,2.50
2023-04-23T18:24:52.749Z,2.17
2023-04-23T18:26:24.620Z,2.45
2023-04-23T18:27:56.572Z,2.60
2023-04-23T18:29:31.284Z,2.35
2023-04-23T18:31:04.328Z,2.50
2023-04-23T18:32:40.640Z,2.03
2023-04-23T18:34:18.285Z,1.58
2023-04-23T18:35:52.609Z,2.00
2023-04-23T18:37:42.047Z,2.15
2023-04-23T18:39:13.915Z,2.00
2023-04-23T18:40:45.858Z,2.10
2023-04-23T18:42:17.635Z,2.00
2023-04-23T18:43:49.497Z,2.30
2023-04-23T18:45:21.271Z,2.40
2023-04-23T18:46:53.506Z,3.08
2023-04-23T18:48:34.488Z,2.85
2023-04-23T18:50:14.026Z,2.60
2023-04-23T18:51:51.252Z,2.20
2023-04-23T18:53:23.130Z,2.30
2023-04-23T18:54:54.986Z,2.55
2023-04-23T18:56:27.000Z,2.75
2023-04-23T18:57:59.142Z,3.65
2023-04-23T18:59:35.318Z,3.33
2023-04-23T19:01:07.357Z,3.47
2023-04-23T19:02:39.292Z,4.05
2023-04-23T19:04:11.449Z,3.53
2023-04-23T19:05:43.442Z,4.13
2023-04-23T19:07:15.341Z,4.25
2023-04-23T19:08:47.192Z,3.88
2023-04-23T19:10:20.409Z,3.08
2023-04-23T19:11:52.678Z,3.15
2023-04-23T19:13:24.634Z,2.60
2023-04-23T19:14:56.746Z,3.50
2023-04-23T19:16:28.690Z,3.20
2023-04-23T19:18:00.836Z,3.00
2023-04-23T19:19:35.417Z,3.30
2023-04-23T19:21:07.270Z,3.03
2023-04-23T19:22:41.865Z,3.00
2023-04-23T19:24:14.094Z,3.20
2023-04-23T19:25:46.079Z,3.45
2023-04-23T19:27:17.886Z,3.50
2023-04-23T19:28:49.688Z,3.05
2023-04-23T19:30:21.514Z,3.28
2023-04-23T19:31:53.365Z,3.15
2023-04-23T19:33:25.264Z,3.40
2023-04-23T19:34:57.281Z,3.90
2023-04-23T19:36:29.141Z,3.60
2023-04-23T19:38:00.970Z,3.20
2023-04-23T19:39:32.784Z,3.78
2023-04-23T19:41:04.586Z,3.05
2023-04-23T19:42:36.971Z,3.05
2023-04-23T19:44:08.788Z,3.03
2023-04-23T19:45:40.649Z,2.80
2023-04-23T19:47:12.547Z,2.90
2023-04-23T19:48:44.417Z,2.88
2023-04-23T19:50:16.809Z,3.00
2023-04-23T19:51:49.796Z,3.10
2023-04-23T19:53:21.861Z,2.58
2023-04-23T19:54:53.741Z,3.00
2023-04-23T19:56:25.715Z,2.85
2023-04-23T19:57:58.716Z,2.88
2023-04-23T19:59:30.518Z,2.50
2023-04-23T20:01:02.337Z,2.80
2023-04-23T20:02:35.274Z,2.50
2023-04-23T20:04:07.623Z,2.40
2023-04-23T20:05:39.985Z,3.00
2023-04-23T20:07:12.794Z,2.85
2023-04-23T20:09:07.038Z,2.70
2023-04-23T20:10:38.896Z,2.75
2023-04-23T20:12:10.766Z,2.60
2023-04-23T20:13:43.261Z,2.53
2023-04-23T20:15:15.076Z,2.50
2023-04-23T20:16:47.671Z,2.45
2023-04-23T20:18:19.554Z,2.25
2023-04-23T20:19:51.329Z,2.50
2023-04-23T20:21:24.107Z,2.53
2023-04-23T20:22:56.034Z,2.88
2023-04-23T20:24:27.830Z,2.63
2023-04-23T20:25:59.651Z,2.70
2023-04-23T20:27:31.636Z,2.30
2023-04-23T20:29:03.898Z,2.65
2023-04-23T20:30:37.143Z,2.28
2023-04-23T20:32:09.027Z,2.38
2023-04-23T20:33:41.044Z,2.28
2023-04-23T20:35:12.891Z,2.10
2023-04-23T20:36:47.425Z,2.40
2023-04-23T20:38:19.616Z,2.25
2023-04-23T20:39:52.095Z,2.10
2023-04-23T20:41:29.477Z,2.10